MMVA/VSA METAR and TAF weather

Enter ICAO airport designator
Station Type Date Time Source
MMVA METAR 2019/09/21 02:41 UTC NOAA

MMVA 210241Z 00000KT 5SM SKC 26/25 A2991 RMK SLP126 52027 917 HZY


Station Type Date Time Source
MMVA Decoded METAR 2019/09/21 02:41 UTC NOAA

Villahermosa , Mexico (MMVA) 18-00N 092-49W
Sep 20, 2019 - 10:41 PM EDT / 2019.09.21 0241 UTC
Wind: Calm:0
Visibility: 5 mile(s):0
Sky conditions: clear
Temperature: 78 F (26 C)
Dew Point: 77 F (25 C)
Relative Humidity: 94%
Pressure (altimeter): 29.91 in. Hg (1012 hPa)
Pressure tendency: 0.08 inches (2.7 hPa) higher than three hours ago
ob: MMVA 210241Z 00000KT 5SM SKC 26/25 A2991 RMK SLP126 52027 917 HZY
cycle: 2

Station Type Date Time Source
MMVA TAF 2019/09/20 18:39 UTC NOAA

TAF MMVA 201730Z 2018/2118 06015KT P6SM SCT010 SCT070
FM202000 10012KT P6SM BKN015CB OVC080
TEMPO 2021/2101 3SM RA
BECMG 2102/2103 32010KT
TEMPO 2102/2106 4SM RA
FM210900 00000KT 3SM HZ OVC015
FM211600 12010KT 5SM HZ SCT015 BKN100

Example: see airport list